Time;durP1;ratioP1;P1;durP2;ratioP2;P2;SDS_P1;SDS_P2;PMS_P1;PMS_P2;Temp;Humidity;BMP_temperature;BMP_pressure;BME280_temperature;BME280_humidity;BME280_pressure;Samples;Min_cycle;Max_cycle;Signal;HPM_P1;HPM_P2
2022/05/30 00:00:06;;;;;;;3.43;3.13;;;7.90;99.90;;;;;;4971876;28;20692;-67
2022/05/30 00:02:33;;;;;;;4.90;3.20;;;7.90;99.90;;;;;;4972463;28;20177;-67
2022/05/30 00:04:58;;;;;;;3.90;2.90;;;7.90;99.90;;;;;;4971292;28;20940;-67
2022/05/30 00:07:24;;;;;;;3.17;2.97;;;7.90;99.90;;;;;;4965939;28;20444;-67
2022/05/30 00:09:49;;;;;;;5.03;3.37;;;7.80;99.90;;;;;;4972110;28;20267;-67
2022/05/30 00:12:14;;;;;;;4.57;3.00;;;7.90;99.90;;;;;;4971384;28;20184;-67
2022/05/30 00:14:40;;;;;;;4.17;3.77;;;7.80;99.90;;;;;;4972353;28;20223;-69
2022/05/30 00:17:07;;;;;;;6.77;3.60;;;7.80;99.90;;;;;;4972179;28;20558;-68
2022/05/30 00:19:35;;;;;;;3.50;3.20;;;7.70;99.90;;;;;;4969429;28;20200;-67
2022/05/30 00:22:01;;;;;;;3.80;3.43;;;7.80;99.90;;;;;;4971486;28;20542;-67
2022/05/30 00:24:26;;;;;;;8.83;3.80;;;7.90;99.90;;;;;;4971678;28;20578;-69
2022/05/30 00:26:52;;;;;;;4.40;3.00;;;8.00;99.90;;;;;;4972140;28;20180;-66
2022/05/30 00:29:18;;;;;;;3.87;3.43;;;8.00;99.90;;;;;;4970725;28;20329;-67
2022/05/30 00:31:43;;;;;;;5.10;3.30;;;7.90;99.90;;;;;;4970166;28;20250;-66
2022/05/30 00:34:09;;;;;;;3.90;3.50;;;7.80;99.90;;;;;;4972429;28;20270;-67
2022/05/30 00:36:34;;;;;;;6.53;3.17;;;7.80;99.90;;;;;;4970841;28;20184;-69
2022/05/30 00:39:00;;;;;;;4.30;3.33;;;7.70;99.90;;;;;;4970919;28;20599;-69
2022/05/30 00:41:26;;;;;;;5.30;3.83;;;7.70;99.90;;;;;;4972763;28;20287;-68
2022/05/30 00:43:52;;;;;;;5.77;3.10;;;7.80;99.90;;;;;;4963247;28;20644;-68
2022/05/30 00:46:17;;;;;;;4.17;3.87;;;7.90;99.90;;;;;;4963021;28;20526;-69
2022/05/30 00:48:50;;;;;;;6.80;3.50;;;7.70;99.90;;;;;;4972230;28;20527;-69
2022/05/30 00:51:19;;;;;;;3.77;3.43;;;7.70;99.90;;;;;;4971547;28;20279;-69
2022/05/30 00:53:48;;;;;;;3.17;2.83;;;7.60;99.90;;;;;;4966836;28;20440;-68
2022/05/30 00:56:14;;;;;;;4.83;3.50;;;7.60;99.90;;;;;;4971375;28;20517;-69
2022/05/30 00:58:46;;;;;;;5.70;3.70;;;7.60;99.90;;;;;;4972468;28;20435;-69
2022/05/30 01:01:12;;;;;;;3.67;3.33;;;7.70;99.90;;;;;;4978522;28;20988;-69
2022/05/30 01:06:32;;;;;;;6.20;4.13;;;7.50;99.90;;;;;;4977295;28;20227;-69
2022/05/30 01:09:04;;;;;;;3.80;3.50;;;7.40;99.90;;;;;;4977605;28;20525;-69
2022/05/30 01:11:50;;;;;;;3.30;3.10;;;7.40;99.90;;;;;;4978159;28;20463;-69
2022/05/30 01:14:16;;;;;;;3.93;3.40;;;7.40;99.90;;;;;;4977394;28;20455;-69
2022/05/30 01:16:41;;;;;;;4.00;3.40;;;7.40;99.90;;;;;;4976267;28;20455;-68
2022/05/30 01:19:30;;;;;;;3.53;3.23;;;7.30;99.90;;;;;;4977609;28;20246;-69
2022/05/30 01:22:26;;;;;;;2.87;2.67;;;7.30;99.90;;;;;;4976761;28;20282;-68
2022/05/30 01:25:07;;;;;;;3.70;3.40;;;7.30;99.90;;;;;;4977695;28;20972;-67
2022/05/30 01:27:48;;;;;;;4.43;2.93;;;7.40;99.90;;;;;;4976897;28;20431;-68
2022/05/30 01:30:16;;;;;;;4.23;3.50;;;7.40;99.90;;;;;;4977390;28;20450;-68
2022/05/30 01:32:41;;;;;;;6.23;3.50;;;7.30;99.90;;;;;;4977602;28;20514;-68
2022/05/30 01:35:07;;;;;;;7.73;3.47;;;7.30;99.90;;;;;;4971435;28;20522;-68
2022/05/30 01:37:33;;;;;;;4.30;3.70;;;7.30;99.90;;;;;;4974269;28;20172;-68
2022/05/30 01:39:58;;;;;;;4.40;4.00;;;7.30;99.90;;;;;;4977123;28;20431;-69
2022/05/30 01:42:25;;;;;;;4.20;3.80;;;7.20;99.90;;;;;;4976948;28;20231;-68
2022/05/30 01:44:50;;;;;;;3.77;3.40;;;7.10;99.90;;;;;;4978725;28;20195;-68
2022/05/30 01:47:16;;;;;;;3.73;3.30;;;7.00;99.90;;;;;;4968166;28;20498;-68
2022/05/30 01:49:41;;;;;;;4.13;3.70;;;6.90;99.90;;;;;;4974580;28;20642;-67
2022/05/30 01:52:07;;;;;;;5.23;3.97;;;6.90;99.90;;;;;;4977249;28;20628;-68
2022/05/30 01:54:32;;;;;;;3.50;3.27;;;7.00;99.90;;;;;;4977470;28;20180;-68
2022/05/30 01:56:58;;;;;;;3.80;3.10;;;7.10;99.90;;;;;;4977340;28;20188;-68
2022/05/30 01:59:23;;;;;;;3.80;3.50;;;7.20;99.90;;;;;;4976994;28;20184;-68
2022/05/30 02:01:49;;;;;;;5.83;3.50;;;7.10;99.90;;;;;;4975921;28;20583;-68
2022/05/30 02:04:15;;;;;;;3.70;3.40;;;7.00;99.90;;;;;;4975953;28;20235;-68
2022/05/30 02:06:42;;;;;;;3.97;3.70;;;7.00;99.90;;;;;;4977225;28;20181;-68
2022/05/30 02:09:08;;;;;;;3.67;3.37;;;7.00;99.90;;;;;;4976688;28;20458;-68
2022/05/30 02:11:35;;;;;;;3.30;2.90;;;7.10;99.90;;;;;;4972713;28;20558;-68
2022/05/30 02:14:00;;;;;;;4.00;3.70;;;7.00;99.90;;;;;;4974285;28;20945;-68
2022/05/30 02:19:10;;;;;;;4.60;3.60;;;6.90;99.90;;;;;;4973321;28;20199;-67
2022/05/30 02:21:36;;;;;;;4.90;3.87;;;6.90;99.90;;;;;;4972382;28;20455;-68
2022/05/30 02:24:06;;;;;;;3.90;3.23;;;6.80;99.90;;;;;;4973138;28;20208;-67
2022/05/30 02:26:35;;;;;;;8.23;4.33;;;6.80;99.90;;;;;;4973127;28;20439;-68
2022/05/30 02:29:02;;;;;;;4.10;3.70;;;6.80;99.90;;;;;;4974501;28;20518;-67
2022/05/30 02:31:28;;;;;;;4.80;3.50;;;6.70;99.90;;;;;;4972959;28;20517;-67
2022/05/30 02:36:41;;;;;;;4.43;3.83;;;6.70;99.90;;;;;;4974274;28;20975;-68
2022/05/30 02:39:13;;;;;;;3.80;3.50;;;6.70;99.90;;;;;;4972790;28;20859;-68
2022/05/30 02:41:39;;;;;;;4.90;3.77;;;6.70;99.90;;;;;;4972795;28;20463;-68
2022/05/30 02:44:04;;;;;;;4.10;3.80;;;6.80;99.90;;;;;;4974544;28;20787;-68
2022/05/30 02:46:30;;;;;;;6.23;4.73;;;6.80;99.90;;;;;;4972862;28;20448;-68
2022/05/30 02:48:56;;;;;;;4.93;4.43;;;6.80;99.90;;;;;;4971763;28;20647;-67
2022/05/30 02:51:22;;;;;;;4.43;4.13;;;6.80;99.90;;;;;;4974293;28;20486;-68
2022/05/30 02:53:47;;;;;;;4.63;3.83;;;6.70;99.90;;;;;;4972710;28;20676;-68
2022/05/30 02:56:14;;;;;;;7.20;5.00;;;6.70;99.90;;;;;;4969627;28;20444;-68
2022/05/30 02:58:40;;;;;;;4.40;4.10;;;6.60;99.90;;;;;;4971201;28;20180;-68
2022/05/30 03:01:05;;;;;;;6.57;4.60;;;6.70;99.90;;;;;;4972609;28;20839;-68
2022/05/30 03:03:31;;;;;;;6.70;4.27;;;6.60;99.90;;;;;;4971458;28;20616;-68
2022/05/30 03:05:57;;;;;;;5.10;4.60;;;6.60;99.90;;;;;;4973058;28;20296;-68
2022/05/30 03:08:23;;;;;;;4.90;4.20;;;6.70;99.90;;;;;;4964796;28;20187;-68
2022/05/30 03:10:49;;;;;;;4.33;3.87;;;6.60;99.90;;;;;;4972619;28;20911;-68
2022/05/30 03:13:14;;;;;;;5.40;4.73;;;6.60;99.90;;;;;;4972016;28;20188;-68
2022/05/30 03:15:40;;;;;;;4.57;4.17;;;6.50;99.90;;;;;;4973381;28;20185;-67
2022/05/30 03:18:07;;;;;;;6.07;4.73;;;6.50;99.90;;;;;;4972735;28;20243;-68
2022/05/30 03:20:33;;;;;;;7.90;5.00;;;6.40;99.90;;;;;;4971837;28;20204;-68
2022/05/30 03:22:58;;;;;;;9.00;4.60;;;6.40;99.90;;;;;;4973149;28;21028;-67
2022/05/30 03:25:25;;;;;;;5.67;4.40;;;6.40;99.90;;;;;;4964854;28;20440;-67
2022/05/30 03:27:55;;;;;;;5.27;4.63;;;6.40;99.90;;;;;;4970162;28;20168;-68
2022/05/30 03:30:22;;;;;;;4.83;4.43;;;6.40;99.90;;;;;;4973343;28;20483;-68
2022/05/30 03:32:48;;;;;;;5.47;4.90;;;6.40;99.90;;;;;;4972752;28;20443;-67
2022/05/30 03:35:15;;;;;;;4.43;4.03;;;6.40;99.90;;;;;;4972041;28;20950;-68
2022/05/30 03:37:41;;;;;;;4.87;4.47;;;6.40;99.90;;;;;;4972132;28;20938;-68
2022/05/30 03:40:10;;;;;;;4.83;4.27;;;6.40;99.90;;;;;;4972328;28;20824;-68
2022/05/30 03:42:36;;;;;;;6.90;5.20;;;6.50;99.90;;;;;;4971952;28;20978;-68
2022/05/30 03:45:02;;;;;;;8.43;4.50;;;6.70;99.90;;;;;;4971821;28;20463;-67
2022/05/30 03:47:34;;;;;;;4.13;3.80;;;6.70;99.90;;;;;;4972559;28;20195;-68
2022/05/30 03:50:00;;;;;;;4.30;3.90;;;6.70;99.90;;;;;;4972171;28;20796;-68
2022/05/30 03:52:27;;;;;;;5.50;4.53;;;6.60;99.90;;;;;;4968015;28;20433;-68
2022/05/30 03:54:52;;;;;;;7.30;4.90;;;6.50;99.90;;;;;;4969839;28;20525;-68
2022/05/30 03:57:18;;;;;;;5.37;4.90;;;6.50;99.90;;;;;;4971587;28;20468;-68
2022/05/30 03:59:44;;;;;;;6.70;5.53;;;6.40;99.90;;;;;;4971861;28;20177;-68
2022/05/30 04:02:09;;;;;;;5.60;4.63;;;6.40;99.90;;;;;;4971617;28;20446;-68
2022/05/30 04:04:35;;;;;;;4.40;4.00;;;6.40;99.90;;;;;;4971058;28;20576;-67
2022/05/30 04:07:01;;;;;;;4.77;4.07;;;6.40;99.90;;;;;;4971318;28;20179;-67
2022/05/30 04:09:26;;;;;;;4.30;4.00;;;6.50;99.90;;;;;;4972141;28;20192;-68
2022/05/30 04:11:52;;;;;;;4.37;4.07;;;6.50;99.90;;;;;;4970480;28;20204;-68
2022/05/30 04:14:17;;;;;;;6.00;4.83;;;6.60;99.90;;;;;;4968745;28;20658;-67
2022/05/30 04:16:43;;;;;;;3.80;3.50;;;6.70;99.90;;;;;;4971870;28;20195;-68
2022/05/30 04:19:08;;;;;;;5.00;4.57;;;7.00;99.90;;;;;;4970888;28;20195;-68
2022/05/30 04:21:35;;;;;;;7.37;4.13;;;7.10;99.90;;;;;;4972275;28;20641;-68
2022/05/30 04:24:01;;;;;;;4.43;4.03;;;7.30;99.90;;;;;;4971183;28;20286;-68
2022/05/30 04:26:26;;;;;;;4.90;4.50;;;7.50;99.90;;;;;;4971924;28;20482;-68
2022/05/30 04:28:52;;;;;;;4.43;3.73;;;7.60;99.90;;;;;;4969312;28;20239;-68
2022/05/30 04:31:18;;;;;;;4.77;4.40;;;7.60;99.90;;;;;;4970646;28;20228;-68
2022/05/30 04:33:43;;;;;;;6.40;4.43;;;7.80;99.90;;;;;;4971197;28;20192;-68
2022/05/30 04:36:11;;;;;;;4.93;4.00;;;8.00;99.90;;;;;;4971668;28;20560;-68
2022/05/30 04:38:37;;;;;;;4.73;4.03;;;8.10;99.90;;;;;;4971588;28;20187;-68
2022/05/30 04:41:03;;;;;;;5.03;4.63;;;8.20;99.90;;;;;;4968034;28;20459;-68
2022/05/30 04:43:29;;;;;;;4.10;3.77;;;8.30;99.90;;;;;;4971121;28;20262;-68
2022/05/30 04:46:10;;;;;;;5.33;4.83;;;8.40;99.90;;;;;;4972073;28;20995;-68
2022/05/30 04:48:35;;;;;;;5.13;4.50;;;8.60;99.90;;;;;;4971152;28;20446;-68
2022/05/30 04:51:01;;;;;;;4.77;4.00;;;8.70;99.90;;;;;;4969118;28;20459;-68
2022/05/30 04:53:26;;;;;;;4.33;4.00;;;8.80;99.90;;;;;;4970805;28;20223;-68
2022/05/30 04:55:52;;;;;;;5.07;4.73;;;9.00;99.90;;;;;;4970648;28;20181;-68
2022/05/30 04:58:18;;;;;;;6.80;4.13;;;9.10;99.90;;;;;;4971183;28;20187;-68
2022/05/30 05:00:43;;;;;;;5.80;5.30;;;9.20;99.90;;;;;;4970030;28;20315;-68
2022/05/30 05:03:09;;;;;;;5.60;5.20;;;9.40;99.90;;;;;;4971726;28;20295;-68
2022/05/30 05:05:34;;;;;;;7.03;5.00;;;9.50;99.90;;;;;;4971217;28;20558;-68
2022/05/30 05:08:25;;;;;;;4.83;4.43;;;9.50;99.90;;;;;;4971198;28;20259;-68
2022/05/30 05:11:04;;;;;;;4.70;4.30;;;9.60;99.90;;;;;;4965588;28;20286;-68
2022/05/30 05:13:29;;;;;;;5.37;4.87;;;9.80;99.90;;;;;;4970562;28;20447;-68
2022/05/30 05:15:58;;;;;;;5.30;4.80;;;10.00;99.90;;;;;;4971055;28;20800;-69
2022/05/30 05:18:24;;;;;;;5.83;5.40;;;10.20;99.90;;;;;;4971965;28;20644;-68
2022/05/30 05:20:49;;;;;;;4.90;4.50;;;10.40;99.90;;;;;;4971217;28;20484;-68
2022/05/30 05:23:15;;;;;;;6.00;5.60;;;10.60;99.90;;;;;;4971913;28;20206;-68
2022/05/30 05:25:41;;;;;;;7.87;5.60;;;10.70;99.90;;;;;;4971347;28;20203;-68
2022/05/30 05:28:07;;;;;;;5.37;4.87;;;10.90;99.90;;;;;;4970050;28;20180;-68
2022/05/30 05:30:33;;;;;;;5.63;5.03;;;10.90;99.90;;;;;;4970771;28;20490;-68
2022/05/30 05:32:59;;;;;;;4.33;3.93;;;11.10;99.90;;;;;;4971900;28;20443;-68
2022/05/30 05:35:25;;;;;;;5.63;5.20;;;11.20;99.90;;;;;;4971240;28;20436;-68
2022/05/30 05:37:51;;;;;;;5.90;5.00;;;11.30;99.90;;;;;;4971384;28;20181;-68
2022/05/30 05:40:17;;;;;;;5.07;4.60;;;11.30;99.90;;;;;;4971968;28;20267;-68
2022/05/30 05:42:43;;;;;;;5.73;5.07;;;11.40;99.90;;;;;;4971989;28;20440;-68
2022/05/30 05:45:08;;;;;;;8.40;4.53;;;11.50;99.90;;;;;;4971518;28;20579;-68
2022/05/30 05:47:35;;;;;;;4.87;4.37;;;11.70;99.90;;;;;;4975144;28;20176;-68
2022/05/30 05:50:03;;;;;;;4.30;3.90;;;11.90;99.90;;;;;;4974909;28;20444;-68
2022/05/30 05:52:28;;;;;;;4.70;4.20;;;12.00;99.90;;;;;;4974390;28;20898;-69
2022/05/30 05:54:55;;;;;;;4.73;4.33;;;12.20;99.90;;;;;;4972135;28;20448;-69
2022/05/30 05:57:22;;;;;;;4.80;4.40;;;12.40;99.90;;;;;;4971636;28;20651;-68
2022/05/30 05:59:47;;;;;;;5.10;4.63;;;12.50;99.90;;;;;;4970018;28;20446;-69
2022/05/30 06:02:13;;;;;;;5.10;4.60;;;12.60;99.90;;;;;;4975173;28;20439;-68
2022/05/30 06:04:39;;;;;;;5.57;4.97;;;12.80;99.90;;;;;;4973485;28;20239;-68
2022/05/30 06:07:06;;;;;;;7.83;3.70;;;12.80;99.90;;;;;;4970845;28;20264;-69
2022/05/30 06:09:32;;;;;;;3.80;3.47;;;12.80;99.90;;;;;;4973704;28;20497;-69
2022/05/30 06:11:58;;;;;;;6.60;5.43;;;13.00;99.90;;;;;;4971018;28;20534;-67
2022/05/30 06:14:24;;;;;;;5.80;4.90;;;13.20;99.90;;;;;;4972154;28;20191;-66
2022/05/30 06:16:50;;;;;;;5.70;5.13;;;13.30;99.90;;;;;;4970771;28;20431;-66
2022/05/30 06:19:15;;;;;;;5.77;5.27;;;13.40;99.90;;;;;;4965675;28;20185;-67
2022/05/30 06:21:41;;;;;;;5.83;5.17;;;13.40;99.90;;;;;;4972763;28;20196;-66
2022/05/30 06:24:08;;;;;;;5.93;5.43;;;13.50;99.90;;;;;;4968261;28;20200;-65
2022/05/30 06:26:35;;;;;;;5.83;5.20;;;13.50;99.90;;;;;;4969792;28;20191;-65
2022/05/30 06:29:01;;;;;;;5.87;5.37;;;13.60;99.90;;;;;;4956269;28;20768;-65
2022/05/30 06:31:29;;;;;;;5.90;5.30;;;13.60;99.90;;;;;;4956162;28;20448;-65
2022/05/30 06:33:55;;;;;;;6.87;6.17;;;13.70;99.90;;;;;;4956269;28;20456;-66
2022/05/30 06:36:23;;;;;;;6.10;5.50;;;13.90;99.90;;;;;;4956144;28;20463;-65
2022/05/30 06:38:49;;;;;;;9.47;8.13;;;13.80;99.90;;;;;;4956112;28;20432;-65
2022/05/30 06:41:17;;;;;;;6.83;5.97;;;14.00;99.90;;;;;;4956284;28;20455;-65
2022/05/30 06:43:44;;;;;;;8.27;5.50;;;14.10;99.90;;;;;;4956072;28;20462;-66
2022/05/30 06:46:11;;;;;;;6.33;5.83;;;14.10;99.90;;;;;;4956160;28;20818;-65
2022/05/30 06:48:37;;;;;;;11.73;10.53;;;14.20;99.90;;;;;;4955803;28;20760;-66
2022/05/30 06:51:08;;;;;;;6.07;5.10;;;14.30;99.90;;;;;;4955792;29;20448;-66
2022/05/30 06:53:34;;;;;;;6.10;5.53;;;14.50;99.90;;;;;;4955842;28;20184;-65
2022/05/30 06:56:00;;;;;;;5.57;4.67;;;14.60;99.90;;;;;;4955859;28;20431;-66
2022/05/30 06:58:26;;;;;;;4.27;3.87;;;14.70;99.90;;;;;;4954930;28;20173;-65
2022/05/30 07:00:52;;;;;;;6.40;5.03;;;14.80;99.90;;;;;;4955618;28;20449;-66
2022/05/30 07:03:18;;;;;;;8.50;4.40;;;14.90;99.90;;;;;;4953920;28;20471;-68
2022/05/30 07:05:45;;;;;;;6.07;4.60;;;15.00;99.90;;;;;;4946467;28;20176;-65
2022/05/30 07:08:12;;;;;;;4.70;4.30;;;15.00;99.90;;;;;;4963861;28;20473;-66
2022/05/30 07:10:38;;;;;;;7.93;4.77;;;14.70;99.90;;;;;;4972256;28;20459;-66
2022/05/30 07:13:04;;;;;;;5.00;4.60;;;14.50;99.90;;;;;;4974421;28;20427;-65
2022/05/30 07:15:31;;;;;;;3.90;3.57;;;14.60;99.90;;;;;;4974506;28;20436;-66
2022/05/30 07:17:57;;;;;;;4.63;4.23;;;14.90;99.90;;;;;;4970506;28;20835;-67
2022/05/30 07:20:23;;;;;;;5.87;4.47;;;15.00;99.90;;;;;;4968031;28;20542;-67
2022/05/30 07:22:48;;;;;;;5.40;5.00;;;15.20;99.90;;;;;;4971646;28;20239;-65
2022/05/30 07:25:14;;;;;;;7.00;5.37;;;15.50;99.90;;;;;;4971306;28;20212;-66
2022/05/30 07:27:39;;;;;;;5.63;3.87;;;15.70;99.90;;;;;;4971373;28;20238;-67
2022/05/30 07:30:06;;;;;;;6.87;3.70;;;15.80;99.90;;;;;;4971188;28;20200;-66
2022/05/30 07:32:33;;;;;;;4.20;2.77;;;15.90;99.90;;;;;;4971414;28;20272;-67
2022/05/30 07:34:59;;;;;;;4.70;3.23;;;16.00;99.90;;;;;;4971047;28;20909;-67
2022/05/30 07:37:25;;;;;;;5.10;3.10;;;16.20;99.30;;;;;;4971163;28;20463;-67
2022/05/30 07:39:50;;;;;;;3.37;3.07;;;16.30;98.90;;;;;;4965378;28;20530;-67
2022/05/30 07:42:16;;;;;;;4.33;3.93;;;16.40;98.40;;;;;;4965051;28;20180;-65
2022/05/30 07:44:41;;;;;;;4.80;3.10;;;16.50;97.90;;;;;;4965382;28;20216;-67
2022/05/30 07:47:07;;;;;;;4.07;3.17;;;16.60;97.60;;;;;;4969003;28;20781;-66
2022/05/30 07:49:33;;;;;;;4.17;3.50;;;16.50;96.60;;;;;;4968237;28;20199;-66
2022/05/30 07:51:58;;;;;;;3.30;3.00;;;16.50;96.80;;;;;;4968691;28;20533;-67
2022/05/30 07:54:24;;;;;;;4.07;3.67;;;16.60;96.40;;;;;;4967261;28;20833;-67
2022/05/30 07:56:49;;;;;;;4.63;4.00;;;16.70;96.70;;;;;;4967274;28;20562;-67
2022/05/30 07:59:15;;;;;;;8.63;7.07;;;16.80;95.30;;;;;;4968392;28;20188;-67
2022/05/30 08:01:41;;;;;;;3.33;3.03;;;16.60;96.10;;;;;;4967373;28;20574;-67
2022/05/30 08:04:12;;;;;;;4.00;3.70;;;16.90;94.60;;;;;;4967600;28;20475;-66
2022/05/30 08:06:38;;;;;;;3.50;3.20;;;17.00;94.20;;;;;;4968477;28;20181;-67
2022/05/30 08:09:04;;;;;;;4.10;2.97;;;16.90;94.60;;;;;;4965593;28;20447;-67
2022/05/30 08:11:30;;;;;;;6.20;3.50;;;16.90;94.30;;;;;;4968701;28;20495;-66
2022/05/30 08:13:56;;;;;;;3.30;3.10;;;17.20;93.70;;;;;;4971748;28;20925;-67
2022/05/30 08:16:25;;;;;;;3.87;3.57;;;17.40;93.90;;;;;;4967095;28;20417;-67
2022/05/30 08:18:51;;;;;;;4.37;3.63;;;17.30;93.60;;;;;;4965141;28;20737;-67
2022/05/30 08:21:16;;;;;;;7.80;3.60;;;17.50;94.50;;;;;;4966379;28;20542;-67
2022/05/30 08:23:42;;;;;;;4.00;3.40;;;17.80;93.80;;;;;;4962006;28;20204;-68
2022/05/30 08:26:08;;;;;;;3.93;3.30;;;18.00;92.40;;;;;;4964132;28;20587;-66
2022/05/30 08:28:34;;;;;;;4.30;2.83;;;18.30;91.30;;;;;;4961299;28;20180;-66
2022/05/30 08:31:01;;;;;;;3.23;2.93;;;18.40;89.80;;;;;;4965448;28;20467;-66
2022/05/30 08:33:27;;;;;;;3.87;3.53;;;18.60;89.30;;;;;;4965701;28;20444;-67
2022/05/30 08:36:19;;;;;;;3.87;3.23;;;18.40;88.80;;;;;;4962205;28;20443;-67
2022/05/30 08:38:44;;;;;;;3.57;3.13;;;18.50;87.70;;;;;;4961316;28;20506;-67
2022/05/30 08:44:01;;;;;;;7.60;6.87;;;18.30;88.70;;;;;;4963593;28;20219;-66
2022/05/30 08:46:48;;;;;;;3.43;3.03;;;18.70;87.00;;;;;;4966267;28;20440;-67
2022/05/30 08:49:22;;;;;;;3.50;3.20;;;18.90;85.50;;;;;;4962149;28;20443;-67
2022/05/30 08:51:50;;;;;;;4.63;3.30;;;19.00;84.20;;;;;;4966716;28;20537;-67
2022/05/30 08:54:47;;;;;;;3.60;2.57;;;19.20;81.80;;;;;;4967193;28;20432;-67
2022/05/30 08:57:29;;;;;;;5.50;2.87;;;19.40;78.10;;;;;;4967712;28;20431;-66
2022/05/30 09:00:17;;;;;;;3.13;2.53;;;19.40;79.40;;;;;;4965482;28;20443;-67
2022/05/30 09:03:05;;;;;;;3.07;2.87;;;19.40;76.00;;;;;;4966021;28;20526;-67
2022/05/30 09:05:36;;;;;;;5.47;3.47;;;18.80;73.70;;;;;;4960871;28;20443;-67
2022/05/30 09:08:06;;;;;;;8.47;2.90;;;19.10;76.90;;;;;;4968512;28;20454;-67
2022/05/30 09:10:53;;;;;;;4.77;2.57;;;18.70;74.50;;;;;;4966098;28;20545;-67
2022/05/30 09:13:24;;;;;;;3.30;3.00;;;19.20;73.80;;;;;;4964543;28;20902;-66
2022/05/30 09:16:24;;;;;;;2.30;2.13;;;19.30;72.70;;;;;;4967164;28;20439;-67
2022/05/30 09:18:52;;;;;;;3.90;2.47;;;19.00;73.10;;;;;;4953781;28;20629;-67
2022/05/30 09:21:20;;;;;;;3.87;2.30;;;18.80;72.40;;;;;;4969340;28;20466;-68
2022/05/30 09:23:46;;;;;;;3.40;3.03;;;18.80;73.90;;;;;;4970307;28;20490;-66
2022/05/30 09:26:21;;;;;;;2.90;2.67;;;18.90;73.90;;;;;;4970751;28;20493;-66
2022/05/30 09:28:49;;;;;;;3.27;2.57;;;19.30;72.60;;;;;;4969187;28;20527;-67
2022/05/30 09:31:36;;;;;;;2.33;2.10;;;19.70;70.10;;;;;;4971185;28;20561;-67
2022/05/30 09:34:32;;;;;;;2.97;2.30;;;19.70;70.00;;;;;;4968529;28;20485;-66
2022/05/30 09:36:58;;;;;;;2.87;2.67;;;19.90;66.20;;;;;;4967681;28;20443;-67
2022/05/30 09:39:24;;;;;;;2.63;2.43;;;20.10;64.60;;;;;;4970351;28;20448;-66
2022/05/30 09:41:56;;;;;;;4.53;2.40;;;20.50;64.70;;;;;;4972998;28;20474;-66
2022/05/30 09:44:53;;;;;;;2.80;2.60;;;20.30;64.30;;;;;;4970048;28;20281;-67
2022/05/30 09:47:22;;;;;;;2.90;2.33;;;19.70;64.90;;;;;;4945493;28;20444;-67
2022/05/30 09:49:53;;;;;;;3.60;2.40;;;19.40;64.40;;;;;;4970666;28;20839;-68
2022/05/30 09:52:37;;;;;;;3.47;2.07;;;18.60;65.70;;;;;;4962930;28;20443;-66
2022/05/30 09:55:24;;;;;;;3.47;1.70;;;18.70;63.60;;;;;;4970341;28;20449;-66
2022/05/30 09:57:50;;;;;;;2.60;2.40;;;19.80;59.90;;;;;;4956211;28;20879;-68
2022/05/30 10:00:39;;;;;;;2.83;2.60;;;20.00;57.80;;;;;;4970430;28;20853;-68
2022/05/30 10:03:32;;;;;;;2.30;2.10;;;21.20;58.30;;;;;;4965767;28;20451;-65
2022/05/30 10:06:22;;;;;;;2.00;1.73;;;23.20;54.30;;;;;;4964478;28;20486;-64
2022/05/30 10:08:48;;;;;;;1.77;1.57;;;24.70;50.10;;;;;;4967772;28;20508;-63
2022/05/30 10:11:34;;;;;;;2.13;1.80;;;23.70;47.70;;;;;;4972549;28;20471;-63
2022/05/30 10:14:15;;;;;;;2.40;2.20;;;22.80;48.70;;;;;;4973277;28;20443;-64
2022/05/30 10:16:40;;;;;;;1.97;1.87;;;23.80;49.20;;;;;;4968896;28;20815;-64
2022/05/30 10:19:09;;;;;;;2.30;1.70;;;25.70;46.10;;;;;;4974845;28;20427;-65
2022/05/30 10:28:25;;;;;;;1.83;1.73;;;26.50;41.00;;;;;;4972472;28;20843;-65
2022/05/30 10:31:31;;;;;;;2.30;1.80;;;27.60;38.70;;;;;;4971344;28;20467;-65
2022/05/30 10:34:29;;;;;;;2.40;1.70;;;27.80;36.80;;;;;;4969563;28;20428;-64
2022/05/30 10:37:18;;;;;;;2.30;1.80;;;28.40;36.50;;;;;;4963597;28;20430;-65
2022/05/30 10:40:05;;;;;;;2.03;1.90;;;29.90;34.60;;;;;;4970682;28;20497;-65
2022/05/30 10:42:47;;;;;;;3.40;2.20;;;30.30;34.30;;;;;;4960309;28;20466;-65
2022/05/30 10:45:27;;;;;;;1.80;1.60;;;31.80;33.10;;;;;;4968766;28;20816;-65
2022/05/30 10:47:55;;;;;;;3.90;1.50;;;32.10;32.90;;;;;;4968757;28;20431;-65
2022/05/30 10:50:23;;;;;;;3.37;1.67;;;31.70;30.20;;;;;;4958989;28;21018;-72
2022/05/30 10:52:56;;;;;;;3.40;1.80;;;31.90;31.60;;;;;;4970135;28;20473;-68
2022/05/30 10:55:31;;;;;;;3.03;2.20;;;32.80;29.80;;;;;;4967653;28;20941;-68
2022/05/30 10:58:01;;;;;;;2.70;1.93;;;32.90;30.00;;;;;;4967478;28;20804;-69
2022/05/30 11:00:40;;;;;;;1.93;1.80;;;32.90;31.10;;;;;;4962538;28;20467;-68
2022/05/30 11:03:17;;;;;;;2.07;1.97;;;33.40;29.50;;;;;;4961232;28;20825;-65
2022/05/30 11:06:01;;;;;;;2.13;1.80;;;31.90;30.00;;;;;;4966395;28;20447;-64
2022/05/30 11:08:45;;;;;;;2.73;2.07;;;29.50;32.40;;;;;;4969272;28;20423;-64
2022/05/30 11:11:19;;;;;;;3.50;2.70;;;27.00;33.80;;;;;;4969924;28;21074;-65
2022/05/30 11:13:59;;;;;;;3.13;1.87;;;25.70;34.90;;;;;;4970066;28;20475;-65
2022/05/30 11:16:47;;;;;;;2.87;2.63;;;24.50;36.00;;;;;;4967951;28;20506;-65
2022/05/30 11:19:22;;;;;;;3.27;3.03;;;23.70;36.60;;;;;;4969177;28;20452;-64
2022/05/30 11:22:05;;;;;;;2.50;1.70;;;22.90;38.50;;;;;;4968734;28;20466;-64
2022/05/30 11:24:32;;;;;;;2.50;2.30;;;22.90;38.40;;;;;;4966945;28;20912;-64
2022/05/30 11:27:17;;;;;;;3.80;2.23;;;22.90;38.70;;;;;;4967312;28;20447;-64
2022/05/30 11:30:14;;;;;;;4.93;2.00;;;24.90;36.90;;;;;;4964785;28;20458;-64
2022/05/30 11:33:00;;;;;;;1.80;1.70;;;24.70;34.90;;;;;;4967149;28;20451;-64
2022/05/30 11:35:33;;;;;;;2.00;1.73;;;26.50;35.70;;;;;;4967183;28;21079;-65
2022/05/30 11:38:08;;;;;;;2.17;1.63;;;29.20;33.70;;;;;;4968858;28;20518;-66
2022/05/30 11:41:04;;;;;;;2.80;1.97;;;30.80;31.20;;;;;;4967455;28;20458;-65
2022/05/30 11:43:39;;;;;;;1.80;1.70;;;30.90;29.90;;;;;;4963179;28;20451;-66
2022/05/30 11:46:17;;;;;;;2.27;1.80;;;30.80;29.90;;;;;;4963802;28;20987;-65
2022/05/30 11:48:46;;;;;;;2.23;2.00;;;30.30;29.60;;;;;;4965478;28;20448;-65
2022/05/30 11:51:39;;;;;;;5.20;2.33;;;28.40;31.30;;;;;;4968220;28;20553;-65
2022/05/30 11:54:46;;;;;;;2.10;1.70;;;28.70;31.30;;;;;;4965866;28;20471;-66
2022/05/30 11:57:15;;;;;;;3.13;2.90;;;30.10;30.60;;;;;;4965120;28;20451;-66
2022/05/30 12:00:14;;;;;;;2.60;2.40;;;31.60;29.90;;;;;;4967430;28;20470;-66
2022/05/30 12:03:22;;;;;;;3.10;1.70;;;32.90;29.00;;;;;;4964558;28;20510;-66
2022/05/30 12:06:08;;;;;;;2.50;2.20;;;34.40;27.80;;;;;;4965174;28;20534;-65
2022/05/30 12:09:04;;;;;;;2.17;2.00;;;33.50;27.40;;;;;;4966109;28;20470;-65
2022/05/30 12:11:44;;;;;;;4.10;1.90;;;31.10;28.00;;;;;;4968125;28;20481;-66
2022/05/30 12:14:50;;;;;;;2.10;1.90;;;28.30;28.90;;;;;;4968596;28;20585;-65
2022/05/30 12:17:16;;;;;;;3.10;2.00;;;27.50;30.60;;;;;;4967606;28;20483;-65
2022/05/30 12:25:35;;;;;;;1.87;1.77;;;24.60;33.20;;;;;;4964924;28;20843;-67
2022/05/30 12:28:26;;;;;;;1.67;1.57;;;24.10;34.30;;;;;;4966183;28;21023;-67
2022/05/30 12:30:55;;;;;;;2.53;2.33;;;23.80;35.10;;;;;;4969903;28;20529;-65
2022/05/30 12:33:30;;;;;;;2.73;1.90;;;23.70;36.00;;;;;;4966033;28;20447;-65
2022/05/30 12:36:07;;;;;;;2.50;1.90;;;23.20;36.20;;;;;;4962766;28;20447;-65
2022/05/30 12:38:56;;;;;;;2.30;1.73;;;22.80;36.40;;;;;;4968577;28;22324;-65
2022/05/30 12:41:34;;;;;;;1.87;1.77;;;23.10;36.30;;;;;;4970355;28;20467;-65
2022/05/30 12:44:00;;;;;;;2.20;1.70;;;23.20;35.20;;;;;;4960494;28;20439;-65
2022/05/30 12:46:28;;;;;;;4.10;1.73;;;24.90;34.60;;;;;;4961338;28;20443;-65
2022/05/30 12:49:16;;;;;;;1.97;1.77;;;26.80;31.20;;;;;;4969454;28;21057;-65
2022/05/30 12:52:17;;;;;;;2.60;2.00;;;27.80;30.90;;;;;;4961874;28;20486;-65
2022/05/30 12:55:10;;;;;;;2.20;2.10;;;27.20;31.20;;;;;;4969870;28;20840;-65
2022/05/30 12:57:40;;;;;;;2.27;2.07;;;26.70;31.90;;;;;;4963174;28;20446;-63
2022/05/30 13:00:43;;;;;;;3.30;1.97;;;25.20;32.70;;;;;;4969103;28;20455;-64
2022/05/30 13:03:33;;;;;;;2.20;2.10;;;24.80;33.00;;;;;;4965984;28;20790;-65
2022/05/30 13:06:00;;;;;;;2.13;1.90;;;25.50;33.20;;;;;;4964025;28;20602;-65
2022/05/30 13:08:56;;;;;;;2.27;2.17;;;27.40;31.90;;;;;;4967024;28;20440;-65
2022/05/30 13:11:50;;;;;;;3.27;2.00;;;29.10;30.20;;;;;;4967688;28;20467;-65
2022/05/30 13:14:27;;;;;;;2.30;1.60;;;29.30;30.40;;;;;;4970663;28;21008;-65
2022/05/30 13:16:58;;;;;;;2.50;1.87;;;30.70;29.20;;;;;;4961754;28;20444;-65
2022/05/30 13:19:24;;;;;;;2.40;1.83;;;30.80;28.70;;;;;;4967996;28;20442;-66
2022/05/30 13:21:50;;;;;;;2.10;1.90;;;28.80;29.40;;;;;;4966501;28;20558;-67
2022/05/30 13:24:26;;;;;;;2.10;1.90;;;28.70;29.60;;;;;;4962868;28;21021;-66
2022/05/30 13:26:53;;;;;;;2.33;2.13;;;29.30;30.00;;;;;;4964722;28;20176;-66
2022/05/30 13:29:18;;;;;;;2.83;2.10;;;30.10;29.30;;;;;;4967917;28;20461;-66
2022/05/30 13:31:51;;;;;;;3.53;2.10;;;30.40;29.20;;;;;;4967096;28;20494;-65
2022/05/30 13:34:26;;;;;;;2.93;2.70;;;30.10;29.00;;;;;;4963339;28;20216;-65